sensor_id;sensor_type;location;lat;lon;timestamp;temperature;humidity
2042;DHT22;1026;51.460;7.252;2023-06-14T00:02:14;22.90;64.20
2042;DHT22;1026;51.460;7.252;2023-06-14T00:04:41;22.90;64.70
2042;DHT22;1026;51.460;7.252;2023-06-14T00:07:07;22.80;63.90
2042;DHT22;1026;51.460;7.252;2023-06-14T00:09:34;22.80;63.90
2042;DHT22;1026;51.460;7.252;2023-06-14T00:12:00;22.80;64.00
2042;DHT22;1026;51.460;7.252;2023-06-14T00:14:26;22.80;63.70
2042;DHT22;1026;51.460;7.252;2023-06-14T00:16:52;22.80;63.80
2042;DHT22;1026;51.460;7.252;2023-06-14T00:19:24;22.80;63.90
2042;DHT22;1026;51.460;7.252;2023-06-14T00:21:50;22.80;63.60
2042;DHT22;1026;51.460;7.252;2023-06-14T00:24:17;22.70;63.50
2042;DHT22;1026;51.460;7.252;2023-06-14T00:26:43;22.70;63.70
2042;DHT22;1026;51.460;7.252;2023-06-14T00:29:08;22.70;63.50
2042;DHT22;1026;51.460;7.252;2023-06-14T00:31:34;22.70;63.60
2042;DHT22;1026;51.460;7.252;2023-06-14T00:34:00;22.70;63.40
2042;DHT22;1026;51.460;7.252;2023-06-14T00:36:25;22.70;63.40
2042;DHT22;1026;51.460;7.252;2023-06-14T00:38:51;22.70;63.50
2042;DHT22;1026;51.460;7.252;2023-06-14T00:41:17;22.70;63.40
2042;DHT22;1026;51.460;7.252;2023-06-14T00:43:42;22.60;63.30
2042;DHT22;1026;51.460;7.252;2023-06-14T00:46:08;22.60;63.10
2042;DHT22;1026;51.460;7.252;2023-06-14T00:48:34;22.60;63.20
2042;DHT22;1026;51.460;7.252;2023-06-14T00:51:00;22.60;63.20
2042;DHT22;1026;51.460;7.252;2023-06-14T00:53:30;22.60;63.20
2042;DHT22;1026;51.460;7.252;2023-06-14T00:55:57;22.60;64.00
2042;DHT22;1026;51.460;7.252;2023-06-14T00:58:22;22.50;63.10
2042;DHT22;1026;51.460;7.252;2023-06-14T01:00:48;22.50;63.00
2042;DHT22;1026;51.460;7.252;2023-06-14T01:03:14;22.60;63.10
2042;DHT22;1026;51.460;7.252;2023-06-14T01:05:47;22.50;63.10
2042;DHT22;1026;51.460;7.252;2023-06-14T01:11:10;22.50;62.80
2042;DHT22;1026;51.460;7.252;2023-06-14T01:13:40;22.50;62.80
2042;DHT22;1026;51.460;7.252;2023-06-14T01:16:08;22.50;63.10
2042;DHT22;1026;51.460;7.252;2023-06-14T01:18:34;22.50;63.00
2042;DHT22;1026;51.460;7.252;2023-06-14T01:21:01;22.40;63.00
2042;DHT22;1026;51.460;7.252;2023-06-14T01:23:31;22.40;62.90
2042;DHT22;1026;51.460;7.252;2023-06-14T01:26:00;22.40;62.80
2042;DHT22;1026;51.460;7.252;2023-06-14T01:28:28;22.40;62.90
2042;DHT22;1026;51.460;7.252;2023-06-14T01:30:59;22.40;62.60
2042;DHT22;1026;51.460;7.252;2023-06-14T01:33:29;22.40;63.10
2042;DHT22;1026;51.460;7.252;2023-06-14T01:35:56;22.40;63.00
2042;DHT22;1026;51.460;7.252;2023-06-14T01:38:25;22.30;62.70
2042;DHT22;1026;51.460;7.252;2023-06-14T01:40:53;22.30;62.90
2042;DHT22;1026;51.460;7.252;2023-06-14T01:43:20;22.30;63.00
2042;DHT22;1026;51.460;7.252;2023-06-14T01:45:47;22.30;63.00
2042;DHT22;1026;51.460;7.252;2023-06-14T01:48:14;22.30;62.80
2042;DHT22;1026;51.460;7.252;2023-06-14T01:50:40;22.30;62.90
2042;DHT22;1026;51.460;7.252;2023-06-14T01:53:08;22.30;63.00
2042;DHT22;1026;51.460;7.252;2023-06-14T01:55:34;22.20;63.10
2042;DHT22;1026;51.460;7.252;2023-06-14T01:58:03;22.30;63.10
2042;DHT22;1026;51.460;7.252;2023-06-14T02:00:29;22.20;63.00
2042;DHT22;1026;51.460;7.252;2023-06-14T02:02:55;22.20;62.90
2042;DHT22;1026;51.460;7.252;2023-06-14T02:05:21;22.20;62.90
2042;DHT22;1026;51.460;7.252;2023-06-14T02:07:47;22.10;62.90
2042;DHT22;1026;51.460;7.252;2023-06-14T02:10:13;22.20;63.00
2042;DHT22;1026;51.460;7.252;2023-06-14T02:12:40;22.10;63.00
2042;DHT22;1026;51.460;7.252;2023-06-14T02:15:06;22.10;63.30
2042;DHT22;1026;51.460;7.252;2023-06-14T02:17:32;22.10;63.00
2042;DHT22;1026;51.460;7.252;2023-06-14T02:19:58;22.10;63.00
2042;DHT22;1026;51.460;7.252;2023-06-14T02:22:25;22.10;63.00
2042;DHT22;1026;51.460;7.252;2023-06-14T02:24:50;22.10;63.10
2042;DHT22;1026;51.460;7.252;2023-06-14T02:27:16;22.10;63.00
2042;DHT22;1026;51.460;7.252;2023-06-14T02:29:42;22.00;62.80
2042;DHT22;1026;51.460;7.252;2023-06-14T02:32:08;22.00;63.10
2042;DHT22;1026;51.460;7.252;2023-06-14T02:34:34;22.00;63.10
2042;DHT22;1026;51.460;7.252;2023-06-14T02:37:00;22.00;63.00
2042;DHT22;1026;51.460;7.252;2023-06-14T02:39:28;22.00;63.10
2042;DHT22;1026;51.460;7.252;2023-06-14T02:41:54;21.90;63.00
2042;DHT22;1026;51.460;7.252;2023-06-14T02:44:23;21.90;63.10
2042;DHT22;1026;51.460;7.252;2023-06-14T02:46:50;21.90;63.00
2042;DHT22;1026;51.460;7.252;2023-06-14T02:49:15;21.90;63.10
2042;DHT22;1026;51.460;7.252;2023-06-14T02:51:41;21.90;63.00
2042;DHT22;1026;51.460;7.252;2023-06-14T02:54:07;21.90;63.00
2042;DHT22;1026;51.460;7.252;2023-06-14T02:56:32;21.80;63.00
2042;DHT22;1026;51.460;7.252;2023-06-14T02:58:58;21.80;62.90
2042;DHT22;1026;51.460;7.252;2023-06-14T03:01:30;21.80;63.20
2042;DHT22;1026;51.460;7.252;2023-06-14T03:04:00;21.80;63.10
2042;DHT22;1026;51.460;7.252;2023-06-14T03:06:25;21.80;63.10
2042;DHT22;1026;51.460;7.252;2023-06-14T03:08:51;21.80;63.30
2042;DHT22;1026;51.460;7.252;2023-06-14T03:11:20;21.80;63.10
2042;DHT22;1026;51.460;7.252;2023-06-14T03:13:46;21.70;63.10
2042;DHT22;1026;51.460;7.252;2023-06-14T03:16:12;21.70;63.10
2042;DHT22;1026;51.460;7.252;2023-06-14T03:18:38;21.70;62.90
2042;DHT22;1026;51.460;7.252;2023-06-14T03:21:03;21.70;63.00
2042;DHT22;1026;51.460;7.252;2023-06-14T03:23:30;21.70;63.10
2042;DHT22;1026;51.460;7.252;2023-06-14T03:25:56;21.70;63.10
2042;DHT22;1026;51.460;7.252;2023-06-14T03:28:22;21.60;63.00
2042;DHT22;1026;51.460;7.252;2023-06-14T03:30:48;21.60;63.20
2042;DHT22;1026;51.460;7.252;2023-06-14T03:33:13;21.60;63.00
2042;DHT22;1026;51.460;7.252;2023-06-14T03:35:40;21.60;63.00
2042;DHT22;1026;51.460;7.252;2023-06-14T03:38:06;21.60;63.20
2042;DHT22;1026;51.460;7.252;2023-06-14T03:40:32;21.60;63.20
2042;DHT22;1026;51.460;7.252;2023-06-14T03:42:58;21.50;63.00
2042;DHT22;1026;51.460;7.252;2023-06-14T03:45:23;21.50;63.10
2042;DHT22;1026;51.460;7.252;2023-06-14T03:47:49;21.50;63.00
2042;DHT22;1026;51.460;7.252;2023-06-14T03:50:16;21.50;62.90
2042;DHT22;1026;51.460;7.252;2023-06-14T03:52:42;21.50;63.10
2042;DHT22;1026;51.460;7.252;2023-06-14T03:55:24;21.50;63.20
2042;DHT22;1026;51.460;7.252;2023-06-14T03:57:53;21.50;63.20
2042;DHT22;1026;51.460;7.252;2023-06-14T04:00:18;21.40;63.10
2042;DHT22;1026;51.460;7.252;2023-06-14T04:02:44;21.40;63.10
2042;DHT22;1026;51.460;7.252;2023-06-14T04:05:10;21.40;63.10
2042;DHT22;1026;51.460;7.252;2023-06-14T04:07:36;21.40;63.10
2042;DHT22;1026;51.460;7.252;2023-06-14T04:10:12;21.40;63.00
2042;DHT22;1026;51.460;7.252;2023-06-14T04:12:38;21.40;63.10
2042;DHT22;1026;51.460;7.252;2023-06-14T04:15:04;21.30;63.00
2042;DHT22;1026;51.460;7.252;2023-06-14T04:17:32;21.30;63.00
2042;DHT22;1026;51.460;7.252;2023-06-14T04:20:04;21.30;63.20
2042;DHT22;1026;51.460;7.252;2023-06-14T04:22:31;21.30;63.20
2042;DHT22;1026;51.460;7.252;2023-06-14T04:24:57;21.30;63.10
2042;DHT22;1026;51.460;7.252;2023-06-14T04:27:26;21.30;63.20
2042;DHT22;1026;51.460;7.252;2023-06-14T04:29:54;21.30;63.10
2042;DHT22;1026;51.460;7.252;2023-06-14T04:32:24;21.20;62.90
2042;DHT22;1026;51.460;7.252;2023-06-14T04:34:53;21.20;63.20
2042;DHT22;1026;51.460;7.252;2023-06-14T04:37:20;21.20;62.90
2042;DHT22;1026;51.460;7.252;2023-06-14T04:39:47;21.20;63.10
2042;DHT22;1026;51.460;7.252;2023-06-14T04:42:13;21.20;63.10
2042;DHT22;1026;51.460;7.252;2023-06-14T04:44:41;21.20;63.10
2042;DHT22;1026;51.460;7.252;2023-06-14T04:47:07;21.10;63.10
2042;DHT22;1026;51.460;7.252;2023-06-14T04:49:32;21.10;63.00
2042;DHT22;1026;51.460;7.252;2023-06-14T04:52:00;21.10;63.20
2042;DHT22;1026;51.460;7.252;2023-06-14T04:54:27;21.10;63.00
2042;DHT22;1026;51.460;7.252;2023-06-14T04:56:53;21.10;63.10
2042;DHT22;1026;51.460;7.252;2023-06-14T04:59:21;21.00;63.00
2042;DHT22;1026;51.460;7.252;2023-06-14T05:01:49;21.10;63.20
2042;DHT22;1026;51.460;7.252;2023-06-14T05:04:16;21.10;63.30
2042;DHT22;1026;51.460;7.252;2023-06-14T05:06:43;21.10;63.40
2042;DHT22;1026;51.460;7.252;2023-06-14T05:09:14;21.10;63.20
2042;DHT22;1026;51.460;7.252;2023-06-14T05:11:40;21.10;63.40
2042;DHT22;1026;51.460;7.252;2023-06-14T05:14:10;21.10;63.30
2042;DHT22;1026;51.460;7.252;2023-06-14T05:16:36;21.00;63.20
2042;DHT22;1026;51.460;7.252;2023-06-14T05:19:03;21.00;63.10
2042;DHT22;1026;51.460;7.252;2023-06-14T05:21:30;21.00;63.10
2042;DHT22;1026;51.460;7.252;2023-06-14T05:23:56;21.00;63.10
2042;DHT22;1026;51.460;7.252;2023-06-14T05:26:21;21.00;63.20
2042;DHT22;1026;51.460;7.252;2023-06-14T05:28:49;21.00;63.30
2042;DHT22;1026;51.460;7.252;2023-06-14T05:31:15;21.00;63.20
2042;DHT22;1026;51.460;7.252;2023-06-14T05:33:41;21.00;63.20
2042;DHT22;1026;51.460;7.252;2023-06-14T05:36:07;21.00;63.30
2042;DHT22;1026;51.460;7.252;2023-06-14T05:38:32;21.00;63.50
2042;DHT22;1026;51.460;7.252;2023-06-14T05:40:58;21.00;63.30
2042;DHT22;1026;51.460;7.252;2023-06-14T05:43:24;20.90;63.20
2042;DHT22;1026;51.460;7.252;2023-06-14T05:45:50;21.00;63.10
2042;DHT22;1026;51.460;7.252;2023-06-14T05:48:16;21.00;63.10
2042;DHT22;1026;51.460;7.252;2023-06-14T05:50:41;21.00;63.30
2042;DHT22;1026;51.460;7.252;2023-06-14T05:53:07;21.00;63.20
2042;DHT22;1026;51.460;7.252;2023-06-14T05:55:33;21.00;63.00
2042;DHT22;1026;51.460;7.252;2023-06-14T05:58:18;21.00;63.20
2042;DHT22;1026;51.460;7.252;2023-06-14T06:03:56;21.00;63.00
2042;DHT22;1026;51.460;7.252;2023-06-14T06:06:22;21.00;62.90
2042;DHT22;1026;51.460;7.252;2023-06-14T06:08:47;21.00;63.00
2042;DHT22;1026;51.460;7.252;2023-06-14T06:11:13;21.00;62.80
2042;DHT22;1026;51.460;7.252;2023-06-14T06:13:39;21.00;62.90
2042;DHT22;1026;51.460;7.252;2023-06-14T06:16:05;21.00;62.60
2042;DHT22;1026;51.460;7.252;2023-06-14T06:18:31;21.00;62.90
2042;DHT22;1026;51.460;7.252;2023-06-14T06:20:57;21.00;62.70
2042;DHT22;1026;51.460;7.252;2023-06-14T06:23:22;21.00;62.30
2042;DHT22;1026;51.460;7.252;2023-06-14T06:25:48;21.00;62.70
2042;DHT22;1026;51.460;7.252;2023-06-14T06:28:20;21.00;62.60
2042;DHT22;1026;51.460;7.252;2023-06-14T06:30:46;21.00;62.90
2042;DHT22;1026;51.460;7.252;2023-06-14T06:33:12;21.00;62.90
2042;DHT22;1026;51.460;7.252;2023-06-14T06:35:38;21.00;62.80
2042;DHT22;1026;51.460;7.252;2023-06-14T06:38:04;21.00;62.60
2042;DHT22;1026;51.460;7.252;2023-06-14T06:40:29;21.00;62.40
2042;DHT22;1026;51.460;7.252;2023-06-14T06:42:55;21.00;62.40
2042;DHT22;1026;51.460;7.252;2023-06-14T06:45:21;21.00;62.50
2042;DHT22;1026;51.460;7.252;2023-06-14T06:47:48;21.00;62.60
2042;DHT22;1026;51.460;7.252;2023-06-14T06:50:14;21.00;61.90
2042;DHT22;1026;51.460;7.252;2023-06-14T06:52:40;21.00;62.50
2042;DHT22;1026;51.460;7.252;2023-06-14T06:55:06;21.00;62.40
2042;DHT22;1026;51.460;7.252;2023-06-14T06:57:34;21.00;62.60
2042;DHT22;1026;51.460;7.252;2023-06-14T06:59:59;21.00;62.80
2042;DHT22;1026;51.460;7.252;2023-06-14T07:02:26;21.00;62.80
2042;DHT22;1026;51.460;7.252;2023-06-14T07:04:51;21.00;61.90
2042;DHT22;1026;51.460;7.252;2023-06-14T07:07:17;21.00;62.00
2042;DHT22;1026;51.460;7.252;2023-06-14T07:09:43;21.00;62.10
2042;DHT22;1026;51.460;7.252;2023-06-14T07:12:09;21.00;62.40
2042;DHT22;1026;51.460;7.252;2023-06-14T07:14:37;21.00;62.50
2042;DHT22;1026;51.460;7.252;2023-06-14T07:17:02;21.00;62.10
2042;DHT22;1026;51.460;7.252;2023-06-14T07:19:28;21.00;62.20
2042;DHT22;1026;51.460;7.252;2023-06-14T07:21:54;21.00;61.70
2042;DHT22;1026;51.460;7.252;2023-06-14T07:24:19;21.00;61.90
2042;DHT22;1026;51.460;7.252;2023-06-14T07:26:49;21.00;62.30
2042;DHT22;1026;51.460;7.252;2023-06-14T07:29:27;21.00;62.20
2042;DHT22;1026;51.460;7.252;2023-06-14T07:31:53;21.00;61.80
2042;DHT22;1026;51.460;7.252;2023-06-14T07:34:19;21.00;62.20
2042;DHT22;1026;51.460;7.252;2023-06-14T07:36:44;21.00;61.90
2042;DHT22;1026;51.460;7.252;2023-06-14T07:39:10;21.00;62.10
2042;DHT22;1026;51.460;7.252;2023-06-14T07:41:36;21.00;60.20
2042;DHT22;1026;51.460;7.252;2023-06-14T07:44:01;21.00;61.20
2042;DHT22;1026;51.460;7.252;2023-06-14T07:46:27;21.00;60.70
2042;DHT22;1026;51.460;7.252;2023-06-14T07:48:53;21.00;60.40
2042;DHT22;1026;51.460;7.252;2023-06-14T07:51:19;21.00;60.80
2042;DHT22;1026;51.460;7.252;2023-06-14T07:53:45;21.00;60.70
2042;DHT22;1026;51.460;7.252;2023-06-14T07:56:11;21.00;60.30
2042;DHT22;1026;51.460;7.252;2023-06-14T07:58:37;21.00;60.80
2042;DHT22;1026;51.460;7.252;2023-06-14T08:01:09;21.00;60.90
2042;DHT22;1026;51.460;7.252;2023-06-14T08:03:35;21.00;60.90
2042;DHT22;1026;51.460;7.252;2023-06-14T08:06:01;21.10;60.60
2042;DHT22;1026;51.460;7.252;2023-06-14T08:08:27;21.10;60.80
2042;DHT22;1026;51.460;7.252;2023-06-14T08:10:52;21.10;60.90
2042;DHT22;1026;51.460;7.252;2023-06-14T08:13:18;21.10;58.30
2042;DHT22;1026;51.460;7.252;2023-06-14T08:15:44;21.00;57.40
2042;DHT22;1026;51.460;7.252;2023-06-14T08:18:09;21.00;57.60
2042;DHT22;1026;51.460;7.252;2023-06-14T08:20:35;21.00;58.00
2042;DHT22;1026;51.460;7.252;2023-06-14T08:23:02;21.00;58.20
2042;DHT22;1026;51.460;7.252;2023-06-14T08:25:29;21.00;58.40
2042;DHT22;1026;51.460;7.252;2023-06-14T08:27:55;21.00;58.50
2042;DHT22;1026;51.460;7.252;2023-06-14T08:30:21;21.00;58.50
2042;DHT22;1026;51.460;7.252;2023-06-14T08:32:47;21.10;58.70
2042;DHT22;1026;51.460;7.252;2023-06-14T08:35:13;21.10;59.00
2042;DHT22;1026;51.460;7.252;2023-06-14T08:37:40;21.10;59.20
2042;DHT22;1026;51.460;7.252;2023-06-14T08:40:21;21.10;58.60
2042;DHT22;1026;51.460;7.252;2023-06-14T08:42:51;21.10;58.80
2042;DHT22;1026;51.460;7.252;2023-06-14T08:45:18;21.10;59.20
2042;DHT22;1026;51.460;7.252;2023-06-14T08:47:45;21.10;59.20
2042;DHT22;1026;51.460;7.252;2023-06-14T08:50:24;21.10;59.00
2042;DHT22;1026;51.460;7.252;2023-06-14T08:52:59;21.10;59.10
2042;DHT22;1026;51.460;7.252;2023-06-14T08:55:28;21.10;59.10
2042;DHT22;1026;51.460;7.252;2023-06-14T08:57:56;21.10;59.10
2042;DHT22;1026;51.460;7.252;2023-06-14T09:00:24;21.20;59.50
2042;DHT22;1026;51.460;7.252;2023-06-14T09:02:51;21.20;59.40
2042;DHT22;1026;51.460;7.252;2023-06-14T09:05:23;21.20;59.60
2042;DHT22;1026;51.460;7.252;2023-06-14T09:07:49;21.20;59.30
2042;DHT22;1026;51.460;7.252;2023-06-14T09:10:16;21.20;59.50
2042;DHT22;1026;51.460;7.252;2023-06-14T09:12:42;21.20;59.60
2042;DHT22;1026;51.460;7.252;2023-06-14T09:15:09;21.20;59.40
2042;DHT22;1026;51.460;7.252;2023-06-14T09:17:36;21.20;59.10
2042;DHT22;1026;51.460;7.252;2023-06-14T09:20:03;21.30;59.60
2042;DHT22;1026;51.460;7.252;2023-06-14T09:22:32;21.30;59.90
2042;DHT22;1026;51.460;7.252;2023-06-14T09:24:59;21.20;59.80
2042;DHT22;1026;51.460;7.252;2023-06-14T09:27:27;21.30;60.00
2042;DHT22;1026;51.460;7.252;2023-06-14T09:29:53;21.30;59.90
2042;DHT22;1026;51.460;7.252;2023-06-14T09:32:19;21.30;60.10
2042;DHT22;1026;51.460;7.252;2023-06-14T09:34:45;21.30;60.10
2042;DHT22;1026;51.460;7.252;2023-06-14T09:37:11;21.40;60.60
2042;DHT22;1026;51.460;7.252;2023-06-14T09:39:52;21.40;60.80
2042;DHT22;1026;51.460;7.252;2023-06-14T09:42:18;21.40;60.70
2042;DHT22;1026;51.460;7.252;2023-06-14T09:44:48;21.40;60.60
2042;DHT22;1026;51.460;7.252;2023-06-14T09:47:15;21.40;60.70
2042;DHT22;1026;51.460;7.252;2023-06-14T09:49:41;21.40;60.80
2042;DHT22;1026;51.460;7.252;2023-06-14T09:52:10;21.50;61.20
2042;DHT22;1026;51.460;7.252;2023-06-14T09:54:41;21.50;61.90
2042;DHT22;1026;51.460;7.252;2023-06-14T09:57:15;21.50;61.20
2042;DHT22;1026;51.460;7.252;2023-06-14T09:59:43;21.50;61.00
2042;DHT22;1026;51.460;7.252;2023-06-14T10:02:18;21.50;61.30
2042;DHT22;1026;51.460;7.252;2023-06-14T10:04:47;21.50;61.30
2042;DHT22;1026;51.460;7.252;2023-06-14T10:07:19;21.60;61.60
2042;DHT22;1026;51.460;7.252;2023-06-14T10:09:47;21.50;61.60
2042;DHT22;1026;51.460;7.252;2023-06-14T10:12:17;21.60;61.80
2042;DHT22;1026;51.460;7.252;2023-06-14T10:15:03;21.60;61.70
2042;DHT22;1026;51.460;7.252;2023-06-14T10:17:46;21.60;61.70
2042;DHT22;1026;51.460;7.252;2023-06-14T10:20:28;21.60;61.90
2042;DHT22;1026;51.460;7.252;2023-06-14T10:23:03;21.60;62.00
2042;DHT22;1026;51.460;7.252;2023-06-14T10:25:31;21.60;62.20
2042;DHT22;1026;51.460;7.252;2023-06-14T10:30:39;21.60;62.20
2042;DHT22;1026;51.460;7.252;2023-06-14T10:33:06;21.60;62.10
2042;DHT22;1026;51.460;7.252;2023-06-14T10:35:33;21.60;62.40
2042;DHT22;1026;51.460;7.252;2023-06-14T10:38:14;21.60;62.10
2042;DHT22;1026;51.460;7.252;2023-06-14T10:40:40;21.60;62.30
2042;DHT22;1026;51.460;7.252;2023-06-14T10:43:22;21.70;62.20
2042;DHT22;1026;51.460;7.252;2023-06-14T10:46:12;21.70;62.70
2042;DHT22;1026;51.460;7.252;2023-06-14T10:48:42;21.70;62.50
2042;DHT22;1026;51.460;7.252;2023-06-14T10:51:16;21.70;62.80
2042;DHT22;1026;51.460;7.252;2023-06-14T10:53:46;21.70;62.70
2042;DHT22;1026;51.460;7.252;2023-06-14T10:58:54;21.70;63.10
2042;DHT22;1026;51.460;7.252;2023-06-14T11:01:35;21.70;63.10
2042;DHT22;1026;51.460;7.252;2023-06-14T11:04:10;21.60;63.10
2042;DHT22;1026;51.460;7.252;2023-06-14T11:06:51;21.60;63.10
2042;DHT22;1026;51.460;7.252;2023-06-14T11:09:27;21.60;63.50
2042;DHT22;1026;51.460;7.252;2023-06-14T11:12:00;21.60;63.30
2042;DHT22;1026;51.460;7.252;2023-06-14T11:14:30;21.60;63.30
2042;DHT22;1026;51.460;7.252;2023-06-14T11:16:56;21.60;63.30
2042;DHT22;1026;51.460;7.252;2023-06-14T11:19:22;21.70;63.40
2042;DHT22;1026;51.460;7.252;2023-06-14T11:21:51;21.70;62.50
2042;DHT22;1026;51.460;7.252;2023-06-14T11:24:17;21.70;62.80
2042;DHT22;1026;51.460;7.252;2023-06-14T11:26:47;21.70;62.00
2042;DHT22;1026;51.460;7.252;2023-06-14T11:29:15;21.70;61.20
2042;DHT22;1026;51.460;7.252;2023-06-14T11:31:44;21.70;61.50
2042;DHT22;1026;51.460;7.252;2023-06-14T11:34:12;21.70;61.40
2042;DHT22;1026;51.460;7.252;2023-06-14T11:36:38;21.70;61.50
2042;DHT22;1026;51.460;7.252;2023-06-14T11:39:05;21.70;61.50
2042;DHT22;1026;51.460;7.252;2023-06-14T11:41:36;21.70;61.60
2042;DHT22;1026;51.460;7.252;2023-06-14T11:44:02;21.70;61.60
2042;DHT22;1026;51.460;7.252;2023-06-14T11:46:28;21.70;61.70
2042;DHT22;1026;51.460;7.252;2023-06-14T11:48:54;21.70;61.90
2042;DHT22;1026;51.460;7.252;2023-06-14T11:51:20;21.70;61.90
2042;DHT22;1026;51.460;7.252;2023-06-14T11:53:46;21.70;61.90
2042;DHT22;1026;51.460;7.252;2023-06-14T11:56:12;21.70;62.00
2042;DHT22;1026;51.460;7.252;2023-06-14T11:58:38;21.70;62.00
2042;DHT22;1026;51.460;7.252;2023-06-14T12:01:04;21.70;62.00
2042;DHT22;1026;51.460;7.252;2023-06-14T12:03:30;21.70;62.10
2042;DHT22;1026;51.460;7.252;2023-06-14T12:06:11;21.70;62.00
2042;DHT22;1026;51.460;7.252;2023-06-14T12:08:38;21.80;62.30
2042;DHT22;1026;51.460;7.252;2023-06-14T12:11:10;21.80;62.20
2042;DHT22;1026;51.460;7.252;2023-06-14T12:13:49;21.80;62.20
2042;DHT22;1026;51.460;7.252;2023-06-14T12:16:14;21.80;62.20
2042;DHT22;1026;51.460;7.252;2023-06-14T12:18:41;21.80;62.30
2042;DHT22;1026;51.460;7.252;2023-06-14T12:21:09;21.90;62.40
2042;DHT22;1026;51.460;7.252;2023-06-14T12:23:50;21.90;62.40
2042;DHT22;1026;51.460;7.252;2023-06-14T12:26:18;21.90;62.40
2042;DHT22;1026;51.460;7.252;2023-06-14T12:28:45;21.90;62.30
2042;DHT22;1026;51.460;7.252;2023-06-14T12:31:13;21.90;62.40
2042;DHT22;1026;51.460;7.252;2023-06-14T12:33:39;21.90;62.40
2042;DHT22;1026;51.460;7.252;2023-06-14T12:36:07;21.90;62.30
2042;DHT22;1026;51.460;7.252;2023-06-14T12:38:33;21.90;62.30
2042;DHT22;1026;51.460;7.252;2023-06-14T12:40:59;21.90;62.50
2042;DHT22;1026;51.460;7.252;2023-06-14T12:43:25;22.00;62.50
2042;DHT22;1026;51.460;7.252;2023-06-14T12:45:51;22.00;62.50
2042;DHT22;1026;51.460;7.252;2023-06-14T12:48:17;22.00;62.30
2042;DHT22;1026;51.460;7.252;2023-06-14T12:50:43;22.00;62.50
2042;DHT22;1026;51.460;7.252;2023-06-14T12:53:08;22.00;62.60
2042;DHT22;1026;51.460;7.252;2023-06-14T12:55:34;22.00;62.60
2042;DHT22;1026;51.460;7.252;2023-06-14T12:58:09;22.00;62.60
2042;DHT22;1026;51.460;7.252;2023-06-14T13:00:37;22.10;62.70
2042;DHT22;1026;51.460;7.252;2023-06-14T13:03:03;22.10;62.80
2042;DHT22;1026;51.460;7.252;2023-06-14T13:05:29;22.10;62.90
2042;DHT22;1026;51.460;7.252;2023-06-14T13:07:56;22.10;62.90
2042;DHT22;1026;51.460;7.252;2023-06-14T13:10:22;22.10;63.00
2042;DHT22;1026;51.460;7.252;2023-06-14T13:12:48;22.20;63.10
2042;DHT22;1026;51.460;7.252;2023-06-14T13:15:13;22.20;63.10
2042;DHT22;1026;51.460;7.252;2023-06-14T13:17:40;22.20;63.10
2042;DHT22;1026;51.460;7.252;2023-06-14T13:20:07;22.20;63.10
2042;DHT22;1026;51.460;7.252;2023-06-14T13:22:34;22.20;63.10
2042;DHT22;1026;51.460;7.252;2023-06-14T13:25:00;22.30;63.20
2042;DHT22;1026;51.460;7.252;2023-06-14T13:27:26;22.30;63.20
2042;DHT22;1026;51.460;7.252;2023-06-14T13:29:52;22.30;63.30
2042;DHT22;1026;51.460;7.252;2023-06-14T13:32:18;22.30;63.30
2042;DHT22;1026;51.460;7.252;2023-06-14T13:34:43;22.40;63.40
2042;DHT22;1026;51.460;7.252;2023-06-14T13:37:09;22.40;63.50
2042;DHT22;1026;51.460;7.252;2023-06-14T13:39:35;22.40;63.50
2042;DHT22;1026;51.460;7.252;2023-06-14T13:42:03;22.40;63.50
2042;DHT22;1026;51.460;7.252;2023-06-14T13:44:28;22.40;63.60
2042;DHT22;1026;51.460;7.252;2023-06-14T13:46:54;22.40;63.80
2042;DHT22;1026;51.460;7.252;2023-06-14T13:49:20;22.40;63.70
2042;DHT22;1026;51.460;7.252;2023-06-14T13:51:46;22.40;63.90
2042;DHT22;1026;51.460;7.252;2023-06-14T13:54:12;22.40;64.00
2042;DHT22;1026;51.460;7.252;2023-06-14T13:56:39;22.40;64.00
2042;DHT22;1026;51.460;7.252;2023-06-14T13:59:05;22.40;64.10
2042;DHT22;1026;51.460;7.252;2023-06-14T14:01:31;22.50;64.30
2042;DHT22;1026;51.460;7.252;2023-06-14T14:03:56;22.50;64.30
2042;DHT22;1026;51.460;7.252;2023-06-14T14:06:24;22.50;64.30
2042;DHT22;1026;51.460;7.252;2023-06-14T14:08:49;22.50;64.40
2042;DHT22;1026;51.460;7.252;2023-06-14T14:11:15;22.50;64.40
2042;DHT22;1026;51.460;7.252;2023-06-14T14:13:41;22.50;64.30
2042;DHT22;1026;51.460;7.252;2023-06-14T14:16:08;22.50;64.40
2042;DHT22;1026;51.460;7.252;2023-06-14T14:18:33;22.60;64.40
2042;DHT22;1026;51.460;7.252;2023-06-14T14:20:59;22.60;64.30
2042;DHT22;1026;51.460;7.252;2023-06-14T14:23:26;22.60;64.40
2042;DHT22;1026;51.460;7.252;2023-06-14T14:25:52;22.60;64.30
2042;DHT22;1026;51.460;7.252;2023-06-14T14:28:17;22.60;64.20
2042;DHT22;1026;51.460;7.252;2023-06-14T14:30:46;22.60;64.40
2042;DHT22;1026;51.460;7.252;2023-06-14T14:33:13;22.70;64.40
2042;DHT22;1026;51.460;7.252;2023-06-14T14:35:43;22.70;64.40
2042;DHT22;1026;51.460;7.252;2023-06-14T14:38:11;22.70;64.40
2042;DHT22;1026;51.460;7.252;2023-06-14T14:40:37;22.70;64.40
2042;DHT22;1026;51.460;7.252;2023-06-14T14:43:02;22.70;64.40
2042;DHT22;1026;51.460;7.252;2023-06-14T14:45:28;22.70;64.50
2042;DHT22;1026;51.460;7.252;2023-06-14T14:47:54;22.70;64.40
2042;DHT22;1026;51.460;7.252;2023-06-14T14:50:19;22.70;64.40
2042;DHT22;1026;51.460;7.252;2023-06-14T14:52:45;22.70;64.40
2042;DHT22;1026;51.460;7.252;2023-06-14T14:55:14;22.70;64.40
2042;DHT22;1026;51.460;7.252;2023-06-14T14:58:15;22.70;64.50
2042;DHT22;1026;51.460;7.252;2023-06-14T15:00:58;22.70;64.70
2042;DHT22;1026;51.460;7.252;2023-06-14T15:03:24;22.80;65.50
2042;DHT22;1026;51.460;7.252;2023-06-14T15:05:49;22.80;64.90
2042;DHT22;1026;51.460;7.252;2023-06-14T15:08:15;22.80;64.90
2042;DHT22;1026;51.460;7.252;2023-06-14T15:10:44;22.80;64.90
2042;DHT22;1026;51.460;7.252;2023-06-14T15:13:11;22.80;64.90
2042;DHT22;1026;51.460;7.252;2023-06-14T15:15:36;22.80;63.80
2042;DHT22;1026;51.460;7.252;2023-06-14T15:18:02;22.80;63.10
2042;DHT22;1026;51.460;7.252;2023-06-14T15:20:28;22.80;62.90
2042;DHT22;1026;51.460;7.252;2023-06-14T15:22:54;22.80;62.70
2042;DHT22;1026;51.460;7.252;2023-06-14T15:25:26;22.80;62.80
2042;DHT22;1026;51.460;7.252;2023-06-14T15:27:52;22.80;62.60
2042;DHT22;1026;51.460;7.252;2023-06-14T15:30:18;22.80;61.40
2042;DHT22;1026;51.460;7.252;2023-06-14T15:32:44;22.80;61.30
2042;DHT22;1026;51.460;7.252;2023-06-14T15:35:09;22.80;61.20
2042;DHT22;1026;51.460;7.252;2023-06-14T15:37:35;22.80;61.40
2042;DHT22;1026;51.460;7.252;2023-06-14T15:40:01;22.80;61.50
2042;DHT22;1026;51.460;7.252;2023-06-14T15:42:26;22.80;61.60
2042;DHT22;1026;51.460;7.252;2023-06-14T15:44:52;22.80;61.90
2042;DHT22;1026;51.460;7.252;2023-06-14T15:47:18;22.80;61.90
2042;DHT22;1026;51.460;7.252;2023-06-14T15:49:43;22.80;62.00
2042;DHT22;1026;51.460;7.252;2023-06-14T15:52:09;22.80;62.20
2042;DHT22;1026;51.460;7.252;2023-06-14T15:54:34;22.80;62.30
2042;DHT22;1026;51.460;7.252;2023-06-14T15:57:00;22.90;62.60
2042;DHT22;1026;51.460;7.252;2023-06-14T15:59:26;22.90;62.80
2042;DHT22;1026;51.460;7.252;2023-06-14T16:02:11;22.90;62.80
2042;DHT22;1026;51.460;7.252;2023-06-14T16:04:44;22.90;63.00
2042;DHT22;1026;51.460;7.252;2023-06-14T16:07:10;22.90;63.00
2042;DHT22;1026;51.460;7.252;2023-06-14T16:09:37;22.90;63.00
2042;DHT22;1026;51.460;7.252;2023-06-14T16:12:14;22.90;63.10
2042;DHT22;1026;51.460;7.252;2023-06-14T16:14:40;22.90;63.20
2042;DHT22;1026;51.460;7.252;2023-06-14T16:17:05;22.90;63.30